Aviation Digital Data Service (ADDS)

Output produced by METARs form (2320 UTC 29 April 2017)
found at http://aviationweather.gov/adds/metars/
 
KAVL 291721Z 2918/3018 19013G20KT P6SM SCT030 
     FM292100 18011G15KT P6SM VCTS BKN040CB 
     FM300200 17003KT P6SM BKN040 
     FM300900 15004KT 3SM BR SCT003 OVC010 
     FM301500 15004KT P6SM OVC030